Time;durP1;ratioP1;P1;durP2;ratioP2;P2;SDS_P1;SDS_P2;PMS_P1;PMS_P2;Temp;Humidity;BMP_temperature;BMP_pressure;BME280_temperature;BME280_humidity;BME280_pressure;Samples;Min_cycle;Max_cycle;Signal;HPM_P1;HPM_P2
2023/07/09 00:02:17;;;;;;;6.03;5.57;;;24.70;16.20;;;;;;4953712;28;20466;-45
2023/07/09 00:04:43;;;;;;;8.90;7.00;;;24.70;16.20;;;;;;4953598;29;20411;-44
2023/07/09 00:07:26;;;;;;;7.70;7.17;;;24.70;16.30;;;;;;4953748;28;20434;-46
2023/07/09 00:09:54;;;;;;;7.67;7.17;;;24.60;16.20;;;;;;4953414;29;20411;-46
2023/07/09 00:12:20;;;;;;;6.70;6.30;;;24.60;16.20;;;;;;4953699;28;20455;-44
2023/07/09 00:14:46;;;;;;;6.20;5.70;;;24.70;16.30;;;;;;4953453;28;20462;-48
2023/07/09 00:17:19;;;;;;;7.27;6.77;;;24.60;16.20;;;;;;4937541;29;20179;-43
2023/07/09 00:19:45;;;;;;;6.93;6.50;;;24.60;16.20;;;;;;4954388;29;20234;-44
2023/07/09 00:22:16;;;;;;;6.90;6.40;;;24.60;16.20;;;;;;4953331;28;20463;-45
2023/07/09 00:24:47;;;;;;;7.10;6.60;;;24.60;16.20;;;;;;4953282;28;20422;-43
2023/07/09 00:27:14;;;;;;;7.63;7.13;;;24.60;16.20;;;;;;4953383;28;20910;-47
2023/07/09 00:29:41;;;;;;;6.63;6.23;;;24.60;16.40;;;;;;4953061;28;20421;-44
2023/07/09 00:32:15;;;;;;;7.57;6.50;;;24.50;16.50;;;;;;4953460;28;20423;-44
2023/07/09 00:34:42;;;;;;;7.33;6.73;;;24.50;16.50;;;;;;4953185;28;20505;-43
2023/07/09 00:37:12;;;;;;;8.10;7.30;;;24.50;16.50;;;;;;4953340;28;20422;-45
2023/07/09 00:39:40;;;;;;;7.30;6.60;;;24.50;16.70;;;;;;4936913;29;21035;-43
2023/07/09 00:42:11;;;;;;;9.70;7.87;;;24.50;16.80;;;;;;4937062;29;20470;-43
2023/07/09 00:44:36;;;;;;;7.43;6.93;;;24.50;16.90;;;;;;4953209;28;20430;-44
2023/07/09 00:47:34;;;;;;;8.63;7.97;;;24.40;17.00;;;;;;4937000;29;20411;-46
2023/07/09 00:50:32;;;;;;;8.57;7.20;;;24.40;17.10;;;;;;4931210;29;20641;-43
2023/07/09 00:53:18;;;;;;;7.93;7.53;;;24.40;17.30;;;;;;4947556;29;20811;-43
2023/07/09 00:55:47;;;;;;;8.33;7.73;;;24.30;17.30;;;;;;4945960;29;20931;-43
2023/07/09 00:58:17;;;;;;;8.10;7.50;;;24.30;17.40;;;;;;4952678;28;20426;-43
2023/07/09 01:00:49;;;;;;;7.50;6.90;;;24.30;17.50;;;;;;4936260;29;20787;-47
2023/07/09 01:03:53;;;;;;;7.57;7.07;;;24.30;17.50;;;;;;4936552;29;20445;-43
2023/07/09 01:06:25;;;;;;;8.23;7.73;;;24.30;17.60;;;;;;4947436;29;20473;-44
2023/07/09 01:08:53;;;;;;;9.47;8.80;;;24.30;17.80;;;;;;4952502;28;20438;-43
2023/07/09 01:11:21;;;;;;;8.60;8.03;;;24.30;17.90;;;;;;4936595;29;20422;-42
2023/07/09 01:13:52;;;;;;;9.23;8.33;;;24.30;17.80;;;;;;4952553;28;20470;-45
2023/07/09 01:16:23;;;;;;;7.43;6.93;;;24.20;18.00;;;;;;4952687;28;20475;-45
2023/07/09 01:18:50;;;;;;;8.70;6.90;;;24.20;18.00;;;;;;4952255;28;20450;-44
2023/07/09 01:21:16;;;;;;;8.27;7.47;;;24.20;18.00;;;;;;4952683;28;20638;-44
2023/07/09 01:23:46;;;;;;;7.43;6.97;;;24.20;18.20;;;;;;4952596;28;20419;-42
2023/07/09 01:26:27;;;;;;;8.17;7.47;;;24.10;18.40;;;;;;4952493;28;20458;-49
2023/07/09 01:28:54;;;;;;;8.70;8.10;;;24.10;18.50;;;;;;4952538;28;20429;-51
2023/07/09 01:31:23;;;;;;;8.97;8.07;;;24.10;18.50;;;;;;4952613;28;20454;-48
2023/07/09 01:33:49;;;;;;;8.40;7.67;;;24.10;18.40;;;;;;4952331;28;20415;-48
2023/07/09 01:36:18;;;;;;;9.07;8.27;;;24.10;18.50;;;;;;4952521;28;20423;-46
2023/07/09 01:38:44;;;;;;;8.27;7.57;;;24.10;18.60;;;;;;4952162;29;20429;-48
2023/07/09 01:41:13;;;;;;;8.47;7.67;;;24.00;18.70;;;;;;4936394;29;20470;-45
2023/07/09 01:43:41;;;;;;;9.10;8.40;;;24.00;18.80;;;;;;4952329;28;20304;-49
2023/07/09 01:46:08;;;;;;;8.20;7.70;;;24.00;19.00;;;;;;4936411;29;20423;-47
2023/07/09 01:48:40;;;;;;;9.30;8.27;;;24.00;19.20;;;;;;4952326;28;20786;-48
2023/07/09 01:51:07;;;;;;;8.20;7.60;;;24.00;19.40;;;;;;4952327;28;20912;-48
2023/07/09 01:53:35;;;;;;;8.90;8.20;;;24.00;19.40;;;;;;4936390;29;20434;-45
2023/07/09 01:56:02;;;;;;;8.50;7.83;;;24.00;19.30;;;;;;4945809;28;20442;-45
2023/07/09 01:58:31;;;;;;;8.47;7.87;;;24.00;19.30;;;;;;4955372;28;20462;-49
2023/07/09 02:00:57;;;;;;;10.23;8.57;;;24.00;19.40;;;;;;4971195;28;20466;-45
2023/07/09 02:03:24;;;;;;;11.10;7.77;;;23.90;19.50;;;;;;4971535;28;20434;-47
2023/07/09 02:05:52;;;;;;;9.40;8.80;;;23.90;19.60;;;;;;4955126;28;20442;-44
2023/07/09 02:08:18;;;;;;;8.73;8.13;;;23.90;19.70;;;;;;4955217;28;20454;-45
2023/07/09 02:10:45;;;;;;;8.73;8.10;;;23.80;19.70;;;;;;4971143;28;20476;-43
2023/07/09 02:13:11;;;;;;;9.10;8.40;;;23.80;19.80;;;;;;4972844;28;20175;-44
2023/07/09 02:15:36;;;;;;;8.60;7.93;;;23.80;20.00;;;;;;4974967;28;20834;-43
2023/07/09 02:18:02;;;;;;;8.53;8.03;;;23.80;20.00;;;;;;4958521;28;20209;-45
2023/07/09 02:20:28;;;;;;;8.77;8.17;;;23.80;20.00;;;;;;4958874;28;20233;-47
2023/07/09 02:22:53;;;;;;;9.03;8.27;;;23.80;20.00;;;;;;4958566;28;20469;-45
2023/07/09 02:25:19;;;;;;;9.33;8.70;;;23.80;20.00;;;;;;4958798;28;20643;-45
2023/07/09 02:27:45;;;;;;;9.90;9.20;;;23.80;20.00;;;;;;4958557;28;20179;-43
2023/07/09 02:30:11;;;;;;;9.47;8.67;;;23.70;19.90;;;;;;4958547;28;20197;-44
2023/07/09 02:32:37;;;;;;;9.40;8.70;;;23.70;19.90;;;;;;4974770;28;20545;-47
2023/07/09 02:35:04;;;;;;;9.43;8.60;;;23.70;19.90;;;;;;4974550;28;20879;-44
2023/07/09 02:37:30;;;;;;;9.97;9.07;;;23.70;20.00;;;;;;4958540;28;20752;-48
2023/07/09 02:39:55;;;;;;;9.77;8.97;;;23.70;20.10;;;;;;4958311;28;20422;-44
2023/07/09 02:42:22;;;;;;;8.97;8.33;;;23.70;20.30;;;;;;4958439;28;20473;-45
2023/07/09 02:44:48;;;;;;;12.83;8.53;;;23.70;20.30;;;;;;4975690;28;20234;-46
2023/07/09 02:47:14;;;;;;;9.33;8.70;;;23.60;20.10;;;;;;4958304;28;20430;-46
2023/07/09 02:49:40;;;;;;;9.70;8.97;;;23.60;20.10;;;;;;4958095;28;20426;-45
2023/07/09 02:52:06;;;;;;;9.43;8.83;;;23.60;20.20;;;;;;4958136;28;20883;-48
2023/07/09 02:54:32;;;;;;;9.27;8.57;;;23.60;20.10;;;;;;4958177;28;20183;-50
2023/07/09 02:56:58;;;;;;;8.87;8.27;;;23.60;20.30;;;;;;4958142;28;20417;-45
2023/07/09 02:59:25;;;;;;;8.93;8.33;;;23.50;20.40;;;;;;4957922;28;20513;-47
2023/07/09 03:01:51;;;;;;;9.60;8.87;;;23.50;20.40;;;;;;4957827;28;20249;-43
2023/07/09 03:04:20;;;;;;;9.27;8.57;;;23.50;20.50;;;;;;4958069;28;20843;-44
2023/07/09 03:06:45;;;;;;;8.57;7.90;;;23.50;20.70;;;;;;4957989;28;20453;-48
2023/07/09 03:09:11;;;;;;;9.20;8.50;;;23.50;20.70;;;;;;4957669;28;20409;-49
2023/07/09 03:11:37;;;;;;;8.67;7.97;;;23.40;20.60;;;;;;4957894;28;20593;-49
2023/07/09 03:14:03;;;;;;;8.27;7.77;;;23.50;20.70;;;;;;4957714;28;20178;-46
2023/07/09 03:16:31;;;;;;;10.07;8.50;;;23.40;20.60;;;;;;4957913;28;20445;-45
2023/07/09 03:18:57;;;;;;;8.53;7.97;;;23.40;20.70;;;;;;4973459;28;20239;-45
2023/07/09 03:21:24;;;;;;;8.33;7.80;;;23.40;20.80;;;;;;4973795;28;20531;-45
2023/07/09 03:23:49;;;;;;;8.57;8.07;;;23.40;20.70;;;;;;4973214;28;20930;-45
2023/07/09 03:26:15;;;;;;;8.40;7.80;;;23.40;20.70;;;;;;4957351;28;20426;-44
2023/07/09 03:28:41;;;;;;;8.03;7.40;;;23.40;20.70;;;;;;4973573;28;20663;-46
2023/07/09 03:31:07;;;;;;;8.23;7.70;;;23.30;20.70;;;;;;4957544;28;20183;-43
2023/07/09 03:33:32;;;;;;;8.40;7.90;;;23.40;20.90;;;;;;4957580;28;20484;-47
2023/07/09 03:35:58;;;;;;;8.80;8.20;;;23.40;20.90;;;;;;4957437;28;20225;-49
2023/07/09 03:38:24;;;;;;;8.57;7.97;;;23.30;20.90;;;;;;4957206;28;20179;-45
2023/07/09 03:40:53;;;;;;;8.47;7.67;;;23.30;20.90;;;;;;4974809;28;20182;-46
2023/07/09 03:43:20;;;;;;;8.70;7.90;;;23.30;20.90;;;;;;4973444;28;20273;-46
2023/07/09 03:45:46;;;;;;;9.50;8.80;;;23.30;21.00;;;;;;4973262;28;20509;-49
2023/07/09 03:48:13;;;;;;;9.40;8.70;;;23.30;20.90;;;;;;4973059;28;20442;-46
2023/07/09 03:50:39;;;;;;;8.10;7.50;;;23.30;21.10;;;;;;4957134;28;20922;-42
2023/07/09 03:53:05;;;;;;;8.47;7.87;;;23.20;20.90;;;;;;4973023;28;20424;-46
2023/07/09 03:55:31;;;;;;;9.20;8.60;;;23.30;20.90;;;;;;4973242;28;20266;-44
2023/07/09 03:57:57;;;;;;;9.40;8.70;;;23.30;21.00;;;;;;4972759;28;20430;-45
2023/07/09 04:00:24;;;;;;;10.07;9.27;;;23.20;21.10;;;;;;4957126;28;20836;-46
2023/07/09 04:02:50;;;;;;;8.40;7.90;;;23.20;21.20;;;;;;4956873;28;20237;-47
2023/07/09 04:05:17;;;;;;;8.93;8.13;;;23.20;22.00;;;;;;4973075;28;20504;-51
2023/07/09 04:07:43;;;;;;;8.60;8.10;;;23.20;21.50;;;;;;4956692;28;20434;-47
2023/07/09 04:10:10;;;;;;;9.87;8.70;;;23.20;21.20;;;;;;4956679;28;20485;-43
2023/07/09 04:12:36;;;;;;;8.83;8.23;;;23.20;21.30;;;;;;4972974;28;20415;-43
2023/07/09 04:15:03;;;;;;;9.17;8.57;;;23.20;21.20;;;;;;4972756;28;20422;-42
2023/07/09 04:17:29;;;;;;;7.57;7.17;;;23.20;21.40;;;;;;4972648;28;20512;-43
2023/07/09 04:19:55;;;;;;;11.30;8.30;;;23.20;21.40;;;;;;4956425;28;20473;-43
2023/07/09 04:22:21;;;;;;;9.47;8.57;;;23.20;21.40;;;;;;4956558;28;20217;-43
2023/07/09 04:24:47;;;;;;;8.80;8.27;;;23.20;21.50;;;;;;4940459;29;20183;-43
2023/07/09 04:27:13;;;;;;;8.87;8.13;;;23.10;21.50;;;;;;4937354;29;20419;-43
2023/07/09 04:29:39;;;;;;;8.00;7.50;;;23.10;21.60;;;;;;4936968;29;20789;-45
2023/07/09 04:32:13;;;;;;;8.07;7.57;;;23.10;21.70;;;;;;4937230;29;20756;-43
2023/07/09 04:34:39;;;;;;;8.43;7.83;;;23.10;22.20;;;;;;4937412;29;20423;-49
2023/07/09 04:37:07;;;;;;;9.00;8.20;;;23.10;21.70;;;;;;4937092;29;20430;-52
2023/07/09 04:39:33;;;;;;;9.90;9.20;;;23.10;21.80;;;;;;4937221;29;20434;-49
2023/07/09 04:41:58;;;;;;;9.00;8.30;;;23.10;21.70;;;;;;4937353;29;21046;-47
2023/07/09 04:44:24;;;;;;;9.10;8.30;;;23.10;21.80;;;;;;4937559;29;20442;-51
2023/07/09 04:46:50;;;;;;;8.90;8.20;;;23.10;21.90;;;;;;4937420;29;20192;-51
2023/07/09 04:49:16;;;;;;;8.67;7.97;;;23.10;21.80;;;;;;4937153;29;20183;-49
2023/07/09 04:51:41;;;;;;;9.33;8.73;;;23.10;21.70;;;;;;4954595;29;20191;-48
2023/07/09 04:54:07;;;;;;;9.30;8.43;;;23.10;21.80;;;;;;4937299;29;20277;-52
2023/07/09 04:56:32;;;;;;;8.03;7.53;;;23.10;21.80;;;;;;4937359;29;20242;-52
2023/07/09 04:58:59;;;;;;;9.00;8.40;;;23.20;21.80;;;;;;4936937;29;20660;-50
2023/07/09 05:01:25;;;;;;;8.10;7.60;;;23.10;21.90;;;;;;4938312;29;20207;-50
2023/07/09 05:03:50;;;;;;;8.67;8.17;;;23.20;21.80;;;;;;4937143;29;20493;-51
2023/07/09 05:06:16;;;;;;;8.67;7.87;;;23.20;21.60;;;;;;4937251;29;20222;-52
2023/07/09 05:08:42;;;;;;;7.83;7.23;;;23.10;21.70;;;;;;4937148;29;20180;-54
2023/07/09 05:11:08;;;;;;;10.17;7.80;;;23.20;21.90;;;;;;4937099;29;20187;-47
2023/07/09 05:13:34;;;;;;;8.63;7.77;;;23.20;22.00;;;;;;4962966;28;20430;-48
2023/07/09 05:15:59;;;;;;;8.90;8.20;;;23.20;22.10;;;;;;4971089;28;20547;-45
2023/07/09 05:18:25;;;;;;;8.10;7.50;;;23.30;21.80;;;;;;4956437;28;20285;-49
2023/07/09 05:20:51;;;;;;;9.73;9.03;;;23.30;21.30;;;;;;4949995;28;20206;-46
2023/07/09 05:23:16;;;;;;;8.53;7.90;;;23.30;21.50;;;;;;4956188;28;20185;-52
2023/07/09 05:25:42;;;;;;;8.40;7.70;;;23.30;21.40;;;;;;4955482;28;20187;-51
2023/07/09 05:28:08;;;;;;;8.30;7.70;;;23.40;21.30;;;;;;4952809;28;20265;-52
2023/07/09 05:30:34;;;;;;;10.23;9.30;;;23.40;21.30;;;;;;4954169;28;20198;-46
2023/07/09 05:32:59;;;;;;;9.70;8.90;;;23.40;21.20;;;;;;4971835;28;20430;-44
2023/07/09 05:35:26;;;;;;;9.00;8.30;;;23.50;21.30;;;;;;4955670;28;20178;-50
2023/07/09 05:37:55;;;;;;;8.07;7.27;;;23.50;21.40;;;;;;4954566;28;20293;-48
2023/07/09 05:40:22;;;;;;;8.07;7.57;;;23.50;21.30;;;;;;4973145;28;20421;-53
2023/07/09 05:42:48;;;;;;;8.43;7.53;;;23.60;21.00;;;;;;4970443;28;20653;-52
2023/07/09 05:45:15;;;;;;;8.47;7.77;;;23.60;21.20;;;;;;4973310;28;20903;-56
2023/07/09 05:47:41;;;;;;;8.60;7.90;;;23.60;21.00;;;;;;4972209;28;20758;-49
2023/07/09 05:50:08;;;;;;;9.00;8.30;;;23.70;21.20;;;;;;4961050;28;20446;-49
2023/07/09 05:52:33;;;;;;;9.23;8.30;;;23.70;21.00;;;;;;4953467;28;20679;-51
2023/07/09 05:54:59;;;;;;;11.23;9.90;;;23.70;20.50;;;;;;4939940;29;20460;-52
2023/07/09 05:57:25;;;;;;;8.80;8.00;;;23.70;20.30;;;;;;4943484;28;20218;-46
2023/07/09 05:59:51;;;;;;;8.40;7.80;;;23.80;20.70;;;;;;4975001;28;20187;-46
2023/07/09 06:02:20;;;;;;;8.10;7.50;;;23.80;20.80;;;;;;4958688;28;20471;-46
2023/07/09 06:04:46;;;;;;;8.50;8.00;;;23.80;20.80;;;;;;4970666;28;20183;-46
2023/07/09 06:07:15;;;;;;;8.00;7.43;;;23.80;20.80;;;;;;4974145;28;20417;-46
2023/07/09 06:09:41;;;;;;;8.77;8.03;;;23.90;20.40;;;;;;4938677;29;20454;-48
2023/07/09 06:12:07;;;;;;;8.87;8.33;;;23.90;20.60;;;;;;4938878;28;20446;-48
2023/07/09 06:14:34;;;;;;;9.13;8.43;;;24.00;20.50;;;;;;4958351;28;20418;-47
2023/07/09 06:17:00;;;;;;;9.27;8.67;;;24.00;20.50;;;;;;4974188;28;20549;-46
2023/07/09 06:19:26;;;;;;;8.63;8.03;;;24.10;20.40;;;;;;4973499;28;20441;-50
2023/07/09 06:21:52;;;;;;;8.60;8.10;;;24.10;20.30;;;;;;4957646;28;20501;-47
2023/07/09 06:24:18;;;;;;;9.07;8.37;;;24.10;20.60;;;;;;4957718;28;20461;-45
2023/07/09 06:26:44;;;;;;;9.07;8.50;;;24.20;20.50;;;;;;4973929;28;20175;-50
2023/07/09 06:29:09;;;;;;;13.50;8.03;;;24.20;20.50;;;;;;4957460;28;20936;-49
2023/07/09 06:31:37;;;;;;;8.60;8.00;;;24.30;20.40;;;;;;4957755;28;20183;-50
2023/07/09 06:34:02;;;;;;;8.77;8.03;;;24.40;20.40;;;;;;4958309;28;20190;-49
2023/07/09 06:36:28;;;;;;;9.10;8.50;;;24.50;20.50;;;;;;4974549;28;20428;-47
2023/07/09 06:38:54;;;;;;;8.20;7.60;;;24.50;20.40;;;;;;4958162;28;20190;-48
2023/07/09 06:41:19;;;;;;;8.57;7.87;;;24.60;20.30;;;;;;4958310;28;20198;-45
2023/07/09 06:43:45;;;;;;;8.80;8.20;;;24.60;20.30;;;;;;4958387;28;20499;-48
2023/07/09 06:46:13;;;;;;;8.43;7.83;;;24.60;20.00;;;;;;4958369;28;20179;-51
2023/07/09 06:48:39;;;;;;;9.20;8.40;;;24.70;19.90;;;;;;4974293;28;20257;-49
2023/07/09 06:51:04;;;;;;;8.87;8.17;;;24.90;19.60;;;;;;4958302;28;20414;-49
2023/07/09 06:53:30;;;;;;;9.17;8.60;;;25.00;19.00;;;;;;4952404;28;20216;-48
2023/07/09 06:55:58;;;;;;;9.77;9.07;;;25.10;19.30;;;;;;4957095;28;20178;-44
2023/07/09 06:58:27;;;;;;;8.70;8.20;;;25.10;19.10;;;;;;4957284;28;20174;-46
2023/07/09 07:00:54;;;;;;;8.73;8.13;;;25.10;19.10;;;;;;4957005;28;20450;-52
2023/07/09 07:03:20;;;;;;;7.87;7.23;;;25.20;18.90;;;;;;4957701;28;20426;-50
2023/07/09 07:05:48;;;;;;;8.57;7.87;;;25.20;19.00;;;;;;4957838;28;20429;-52
2023/07/09 07:08:16;;;;;;;8.77;8.13;;;25.20;19.00;;;;;;4957707;28;20471;-50
2023/07/09 07:10:42;;;;;;;8.10;7.40;;;25.20;18.90;;;;;;4957925;28;20414;-52
2023/07/09 07:13:08;;;;;;;8.27;7.77;;;25.30;18.90;;;;;;4957913;28;20422;-47
2023/07/09 07:15:36;;;;;;;9.20;8.60;;;25.50;18.30;;;;;;4957893;28;20424;-46
2023/07/09 07:18:02;;;;;;;10.13;9.47;;;25.70;17.50;;;;;;4957045;28;20210;-50
2023/07/09 07:20:27;;;;;;;8.00;7.50;;;25.70;17.40;;;;;;4956748;28;20413;-48
2023/07/09 07:22:53;;;;;;;10.80;9.90;;;25.90;17.20;;;;;;4974382;28;20209;-52
2023/07/09 07:25:18;;;;;;;9.10;8.50;;;26.00;17.00;;;;;;4956997;28;20628;-49
2023/07/09 07:27:44;;;;;;;9.27;8.53;;;26.00;17.00;;;;;;4956284;28;20622;-53
2023/07/09 07:30:10;;;;;;;9.17;8.40;;;26.00;17.00;;;;;;4956166;28;20186;-49
2023/07/09 07:32:44;;;;;;;9.23;8.60;;;26.10;17.00;;;;;;4956532;28;20182;-47
2023/07/09 07:35:09;;;;;;;9.33;8.70;;;26.10;17.00;;;;;;4956918;28;20277;-49
2023/07/09 07:37:35;;;;;;;11.87;8.80;;;26.10;17.00;;;;;;4973016;28;20497;-53
2023/07/09 07:40:01;;;;;;;9.37;8.77;;;26.20;17.10;;;;;;4956803;28;20194;-51
2023/07/09 07:42:28;;;;;;;9.83;8.93;;;26.30;17.60;;;;;;4957413;28;20238;-53
2023/07/09 07:44:53;;;;;;;9.80;9.10;;;26.30;16.50;;;;;;4975640;28;20417;-53
2023/07/09 07:47:19;;;;;;;9.70;8.80;;;26.40;16.60;;;;;;4957284;28;20517;-48
2023/07/09 07:49:45;;;;;;;9.80;9.20;;;26.30;16.70;;;;;;4973056;28;20285;-53
2023/07/09 07:52:10;;;;;;;9.57;8.57;;;26.40;15.80;;;;;;4957099;28;20513;-53
2023/07/09 07:54:36;;;;;;;9.57;9.00;;;26.50;15.80;;;;;;4941138;28;20182;-49
2023/07/09 07:57:02;;;;;;;10.67;9.90;;;26.60;16.00;;;;;;4957102;28;20221;-49
2023/07/09 07:59:28;;;;;;;10.60;9.63;;;26.80;15.40;;;;;;4957119;28;20225;-49
2023/07/09 08:01:54;;;;;;;8.97;8.47;;;27.00;14.90;;;;;;4956837;28;20485;-50
2023/07/09 08:04:19;;;;;;;9.47;8.80;;;27.00;15.00;;;;;;4957151;28;20265;-52
2023/07/09 08:06:46;;;;;;;9.37;8.77;;;27.10;14.90;;;;;;4956897;28;20269;-46
2023/07/09 08:09:11;;;;;;;10.10;9.50;;;27.30;14.50;;;;;;4956784;28;20442;-49
2023/07/09 08:11:37;;;;;;;10.40;9.50;;;27.30;14.30;;;;;;4956290;28;20426;-53
2023/07/09 08:14:02;;;;;;;9.77;9.03;;;27.40;14.50;;;;;;4956754;28;20186;-54
2023/07/09 08:16:31;;;;;;;10.00;9.30;;;27.30;14.60;;;;;;4956775;28;20625;-51
2023/07/09 08:18:56;;;;;;;10.17;9.47;;;27.30;14.80;;;;;;4956415;28;20565;-52
2023/07/09 08:21:22;;;;;;;9.60;9.00;;;27.20;14.80;;;;;;4956631;28;20466;-50
2023/07/09 08:23:48;;;;;;;10.23;9.60;;;27.20;14.70;;;;;;4956507;28;20225;-51
2023/07/09 08:26:13;;;;;;;9.47;8.83;;;27.40;13.70;;;;;;4956565;28;20174;-52
2023/07/09 08:28:39;;;;;;;9.87;8.90;;;27.50;13.90;;;;;;4956408;28;20310;-49
2023/07/09 08:31:04;;;;;;;9.87;9.30;;;27.70;13.10;;;;;;4956543;28;20190;-49
2023/07/09 08:33:31;;;;;;;10.43;9.63;;;27.70;13.50;;;;;;4956560;28;20636;-50
2023/07/09 08:35:56;;;;;;;9.43;8.93;;;27.60;14.10;;;;;;4956403;28;20273;-47
2023/07/09 08:38:22;;;;;;;9.10;8.60;;;27.50;13.70;;;;;;4956135;28;20516;-51
2023/07/09 08:41:06;;;;;;;10.40;9.70;;;27.40;13.70;;;;;;4956477;28;20652;-50
2023/07/09 08:43:58;;;;;;;10.33;9.70;;;27.40;13.90;;;;;;4972402;28;20923;-51
2023/07/09 08:46:38;;;;;;;10.40;9.57;;;27.40;13.30;;;;;;4972379;28;20418;-49
2023/07/09 08:49:19;;;;;;;9.30;8.60;;;27.40;13.30;;;;;;4972163;28;20410;-51
2023/07/09 08:51:45;;;;;;;9.50;8.80;;;27.40;13.30;;;;;;4956284;28;20417;-53
2023/07/09 08:54:31;;;;;;;9.27;8.60;;;27.50;12.90;;;;;;4956113;28;20423;-50
2023/07/09 08:57:07;;;;;;;9.37;8.70;;;27.60;12.20;;;;;;4956125;28;20461;-50
2023/07/09 08:59:34;;;;;;;11.10;9.00;;;27.70;11.90;;;;;;4955893;28;20413;-48
2023/07/09 09:02:03;;;;;;;10.70;9.93;;;27.90;12.10;;;;;;4955878;28;20465;-47
2023/07/09 09:04:34;;;;;;;9.50;8.90;;;28.40;11.00;;;;;;4956025;28;20434;-52
2023/07/09 09:07:16;;;;;;;9.70;8.90;;;28.50;10.70;;;;;;4956028;28;20513;-50
2023/07/09 09:09:57;;;;;;;9.73;9.00;;;28.60;10.40;;;;;;4955765;28;20414;-51
2023/07/09 09:12:36;;;;;;;8.80;8.20;;;28.50;11.00;;;;;;4955962;28;20426;-51
2023/07/09 09:15:15;;;;;;;9.20;8.60;;;28.70;10.70;;;;;;4955887;28;20433;-51
2023/07/09 09:17:41;;;;;;;9.40;8.60;;;28.90;10.50;;;;;;4955586;28;20432;-52
2023/07/09 09:20:26;;;;;;;9.23;8.70;;;28.90;11.00;;;;;;4955483;28;20923;-55
2023/07/09 09:22:56;;;;;;;10.33;9.50;;;29.10;10.50;;;;;;4956772;28;20473;-55
2023/07/09 09:25:30;;;;;;;9.53;8.63;;;29.40;9.80;;;;;;4955874;28;20431;-53
2023/07/09 09:27:56;;;;;;;10.10;9.50;;;29.30;10.30;;;;;;4940273;29;20427;-55
2023/07/09 09:30:24;;;;;;;9.30;8.40;;;29.20;10.70;;;;;;4951779;28;20428;-55
2023/07/09 09:33:01;;;;;;;9.17;8.57;;;29.40;9.80;;;;;;4959523;28;20186;-51
2023/07/09 09:35:38;;;;;;;9.57;8.97;;;29.40;9.60;;;;;;4975348;28;20978;-51
2023/07/09 09:38:11;;;;;;;9.50;8.80;;;29.60;9.30;;;;;;4975337;28;20476;-48
2023/07/09 09:40:38;;;;;;;9.33;8.63;;;29.70;8.70;;;;;;4975422;28;20441;-49
2023/07/09 09:43:20;;;;;;;8.30;7.80;;;30.00;7.70;;;;;;4975466;28;20466;-50
2023/07/09 09:45:48;;;;;;;10.30;8.30;;;30.10;6.80;;;;;;4975553;28;20765;-48
2023/07/09 09:48:18;;;;;;;7.93;7.33;;;30.00;6.60;;;;;;4975306;28;20414;-47
2023/07/09 09:50:46;;;;;;;8.17;7.60;;;30.10;6.50;;;;;;4975368;28;20432;-52
2023/07/09 09:53:23;;;;;;;8.77;8.07;;;30.30;5.90;;;;;;4975595;28;20438;-48
2023/07/09 09:55:50;;;;;;;8.70;8.10;;;30.40;5.70;;;;;;4975241;28;20422;-48
2023/07/09 09:58:17;;;;;;;8.27;7.33;;;30.40;5.70;;;;;;4975175;28;20431;-45
2023/07/09 10:00:52;;;;;;;8.50;7.67;;;30.50;5.00;;;;;;4975293;28;20469;-50
2023/07/09 10:03:18;;;;;;;8.57;8.07;;;30.80;4.70;;;;;;4974941;28;20437;-56
2023/07/09 10:05:58;;;;;;;8.60;8.10;;;30.90;4.10;;;;;;4973375;28;20421;-56
2023/07/09 10:08:35;;;;;;;8.83;7.97;;;31.20;4.10;;;;;;4974704;28;20414;-54
2023/07/09 10:11:29;;;;;;;10.90;7.13;;;31.30;2.40;;;;;;4954695;28;20434;-53
2023/07/09 10:13:57;;;;;;;6.83;6.27;;;31.80;1.00;;;;;;4939318;28;20422;-53
2023/07/09 10:16:38;;;;;;;7.77;7.30;;;32.10;1.00;;;;;;4939941;29;20788;-55
2023/07/09 10:19:24;;;;;;;7.07;6.47;;;32.20;1.00;;;;;;4939926;29;20776;-54
2023/07/09 10:22:01;;;;;;;7.10;6.50;;;32.30;1.00;;;;;;4955434;29;20473;-54
2023/07/09 10:24:48;;;;;;;7.73;6.77;;;32.50;1.00;;;;;;4939755;29;20509;-54
2023/07/09 10:27:22;;;;;;;7.00;6.60;;;32.60;1.00;;;;;;4939866;29;20427;-52
2023/07/09 10:30:09;;;;;;;7.90;7.20;;;32.60;1.00;;;;;;4939170;29;20441;-51
2023/07/09 10:32:57;;;;;;;8.40;7.80;;;32.80;1.00;;;;;;4960475;28;20525;-53
2023/07/09 10:35:36;;;;;;;7.07;6.67;;;32.80;1.00;;;;;;4957878;28;20430;-54
2023/07/09 10:38:05;;;;;;;7.30;6.70;;;32.80;1.00;;;;;;4956493;28;20422;-51
2023/07/09 10:40:37;;;;;;;7.20;6.60;;;32.90;1.00;;;;;;4957950;28;20426;-56
2023/07/09 10:43:05;;;;;;;7.67;7.27;;;32.90;1.00;;;;;;4971370;28;20552;-56
2023/07/09 10:45:40;;;;;;;8.27;7.60;;;32.90;1.00;;;;;;4974508;28;20426;-55
2023/07/09 10:48:17;;;;;;;7.90;7.40;;;33.00;1.00;;;;;;4949187;28;20472;-56
2023/07/09 10:50:49;;;;;;;7.43;6.87;;;33.10;1.00;;;;;;4957622;28;20426;-55
2023/07/09 10:53:28;;;;;;;7.33;6.93;;;33.10;1.00;;;;;;4957313;28;20832;-54
2023/07/09 10:56:12;;;;;;;7.67;7.17;;;33.10;1.00;;;;;;4957719;28;20525;-55
2023/07/09 10:58:45;;;;;;;7.10;6.60;;;33.10;1.00;;;;;;4958241;28;20417;-55
2023/07/09 11:01:14;;;;;;;7.20;6.70;;;33.10;1.00;;;;;;4958301;28;20872;-52
2023/07/09 11:03:53;;;;;;;7.10;6.60;;;33.30;1.00;;;;;;4958067;28;20430;-54
2023/07/09 11:06:32;;;;;;;7.00;6.60;;;33.30;1.00;;;;;;4950517;29;20407;-55
2023/07/09 11:08:59;;;;;;;7.80;7.20;;;33.20;1.00;;;;;;4953951;29;20820;-55
2023/07/09 11:11:39;;;;;;;6.93;6.50;;;33.20;1.00;;;;;;4963162;28;20415;-55
2023/07/09 11:14:20;;;;;;;7.40;6.77;;;33.20;1.00;;;;;;4958362;28;20529;-54
2023/07/09 11:16:46;;;;;;;7.40;7.00;;;33.20;1.00;;;;;;4958101;28;20419;-55
2023/07/09 11:19:20;;;;;;;6.83;6.33;;;33.20;1.00;;;;;;4957790;28;20771;-55
2023/07/09 11:22:26;;;;;;;6.50;6.10;;;33.20;1.00;;;;;;4957814;28;20458;-50
2023/07/09 11:25:12;;;;;;;7.37;6.77;;;33.30;1.00;;;;;;4957725;28;20533;-53
2023/07/09 11:28:03;;;;;;;9.07;8.27;;;33.20;1.00;;;;;;4973283;28;20422;-55
2023/07/09 11:30:29;;;;;;;7.07;6.60;;;33.10;1.00;;;;;;4956555;28;20455;-54
2023/07/09 11:33:04;;;;;;;8.77;8.17;;;32.90;1.00;;;;;;4956601;28;20787;-55
2023/07/09 11:35:47;;;;;;;7.20;6.70;;;33.00;1.00;;;;;;4973314;28;20434;-54
2023/07/09 11:38:23;;;;;;;7.87;7.30;;;33.20;1.00;;;;;;4952379;28;20941;-51
2023/07/09 11:40:55;;;;;;;7.03;6.63;;;33.20;1.00;;;;;;4957905;28;20970;-49
2023/07/09 11:43:47;;;;;;;8.57;7.70;;;33.20;1.00;;;;;;4957461;28;20621;-48
2023/07/09 11:46:19;;;;;;;9.20;7.60;;;33.30;1.00;;;;;;4970472;28;20418;-50
2023/07/09 11:48:45;;;;;;;8.30;7.37;;;33.40;1.00;;;;;;4954880;28;20433;-51
2023/07/09 11:51:17;;;;;;;8.03;7.33;;;33.40;1.00;;;;;;4956675;28;20441;-51
2023/07/09 11:53:53;;;;;;;7.90;7.10;;;33.40;1.00;;;;;;4956452;28;20426;-47
2023/07/09 11:56:25;;;;;;;8.17;7.53;;;33.30;1.00;;;;;;4959158;28;20438;-46
2023/07/09 11:58:58;;;;;;;7.20;6.70;;;33.30;1.00;;;;;;4937511;29;20510;-49
2023/07/09 12:01:39;;;;;;;6.87;6.37;;;33.20;1.00;;;;;;4937727;29;20470;-47
2023/07/09 12:04:05;;;;;;;8.30;7.60;;;33.10;1.00;;;;;;4937503;29;20411;-48
2023/07/09 12:06:33;;;;;;;8.63;7.83;;;33.00;1.00;;;;;;4937726;29;20430;-49
2023/07/09 12:08:59;;;;;;;7.20;6.60;;;33.20;1.00;;;;;;4937093;29;20190;-47
2023/07/09 12:11:30;;;;;;;6.90;6.40;;;33.30;1.00;;;;;;4937724;29;20797;-45
2023/07/09 12:14:04;;;;;;;6.50;6.00;;;33.30;1.00;;;;;;4937297;29;20916;-50
2023/07/09 12:16:38;;;;;;;7.37;6.87;;;33.30;1.00;;;;;;4937506;29;20506;-50
2023/07/09 12:19:04;;;;;;;7.50;7.00;;;33.40;1.00;;;;;;4936980;29;20813;-51
2023/07/09 12:21:31;;;;;;;11.50;7.57;;;33.40;1.00;;;;;;4937527;29;20459;-50
2023/07/09 12:23:57;;;;;;;7.03;6.33;;;33.60;1.00;;;;;;4952952;29;20190;-49
2023/07/09 12:26:23;;;;;;;7.43;6.80;;;33.60;1.00;;;;;;4937372;29;20780;-49
2023/07/09 12:28:53;;;;;;;7.27;6.60;;;33.40;1.00;;;;;;4936798;29;20179;-46
2023/07/09 12:31:26;;;;;;;7.23;6.60;;;33.30;1.00;;;;;;4945371;28;20434;-47
2023/07/09 12:33:57;;;;;;;8.03;6.60;;;33.20;1.00;;;;;;4962844;28;20445;-48
2023/07/09 12:36:27;;;;;;;7.80;6.87;;;33.10;1.00;;;;;;4965171;28;20526;-47
2023/07/09 12:39:01;;;;;;;8.00;7.40;;;33.00;1.00;;;;;;4963309;28;20790;-49
2023/07/09 12:41:32;;;;;;;7.30;6.70;;;32.80;1.00;;;;;;4969198;28;20493;-46
2023/07/09 12:43:57;;;;;;;10.93;7.20;;;33.00;1.00;;;;;;4951572;29;20493;-50
2023/07/09 12:46:24;;;;;;;9.37;8.57;;;33.00;1.00;;;;;;4966514;28;20431;-51
2023/07/09 12:48:53;;;;;;;9.37;8.00;;;32.90;1.00;;;;;;4971082;28;20179;-47
2023/07/09 12:51:24;;;;;;;7.20;6.70;;;33.00;1.00;;;;;;4955177;28;20426;-49
2023/07/09 12:54:02;;;;;;;8.47;7.97;;;33.10;1.00;;;;;;4963534;28;20418;-47
2023/07/09 12:56:36;;;;;;;7.80;7.10;;;33.00;1.00;;;;;;4940432;28;21037;-50
2023/07/09 12:59:06;;;;;;;8.30;7.33;;;33.20;1.00;;;;;;4971653;28;20426;-48
2023/07/09 13:01:34;;;;;;;7.10;6.60;;;33.10;1.00;;;;;;4971775;28;20541;-50